Time;durP1;ratioP1;P1;durP2;ratioP2;P2;SDS_P1;SDS_P2;PMS_P1;PMS_P2;Temp;Humidity;BMP_temperature;BMP_pressure;BME280_temperature;BME280_humidity;BME280_pressure;Samples;Min_cycle;Max_cycle;Signal;HPM_P1;HPM_P2
2022/10/27 00:02:17;;;;;;;2.78;1.40;;;23.40;60.10;;;;;;5082581;28;20514;-66
2022/10/27 00:04:43;;;;;;;1.60;1.02;;;23.40;60.10;;;;;;5083712;28;20020;-66
2022/10/27 00:07:08;;;;;;;3.25;1.40;;;23.40;60.10;;;;;;5076288;28;20425;-66
2022/10/27 00:09:34;;;;;;;2.78;1.30;;;23.40;60.10;;;;;;5081867;28;20111;-66
2022/10/27 00:12:00;;;;;;;2.10;1.23;;;23.40;60.10;;;;;;5063409;28;20110;-66
2022/10/27 00:14:26;;;;;;;2.00;1.15;;;23.40;60.10;;;;;;5081036;28;20438;-66
2022/10/27 00:16:53;;;;;;;1.75;1.00;;;23.40;60.20;;;;;;5063584;28;20090;-66
2022/10/27 00:19:23;;;;;;;2.45;1.30;;;23.40;60.20;;;;;;5076317;28;20486;-65
2022/10/27 00:21:50;;;;;;;;;;;23.40;60.20;;;;;;5076009;28;20040;-66
2022/10/27 00:24:19;;;;;;;3.03;1.35;;;23.40;60.20;;;;;;5075537;28;19948;-66
2022/10/27 00:26:45;;;;;;;2.95;1.25;;;23.40;60.20;;;;;;5080456;28;20024;-66
2022/10/27 00:29:10;;;;;;;2.97;1.38;;;23.40;60.20;;;;;;5076684;28;20033;-66
2022/10/27 00:31:36;;;;;;;1.63;1.20;;;23.40;60.20;;;;;;5074533;28;20059;-66
2022/10/27 00:34:02;;;;;;;2.45;1.05;;;23.30;60.20;;;;;;5073138;28;20039;-66
2022/10/27 00:36:27;;;;;;;2.35;1.30;;;23.30;60.20;;;;;;5074322;28;20036;-66
2022/10/27 00:38:55;;;;;;;2.70;1.13;;;23.30;60.20;;;;;;5080462;28;20047;-66
2022/10/27 00:41:31;;;;;;;3.13;1.13;;;23.30;60.20;;;;;;5082118;28;20020;-67
2022/10/27 00:43:59;;;;;;;1.92;1.25;;;23.30;60.30;;;;;;5081286;28;20035;-67
2022/10/27 00:46:30;;;;;;;1.75;1.08;;;23.30;60.30;;;;;;5079747;28;20033;-67
2022/10/27 00:49:09;;;;;;;2.22;1.13;;;23.30;60.30;;;;;;5077805;28;20028;-67
2022/10/27 00:51:40;;;;;;;2.38;1.10;;;23.20;60.30;;;;;;5076565;28;20024;-66
2022/10/27 00:54:06;;;;;;;2.40;1.30;;;23.30;60.30;;;;;;5075462;28;20036;-66
2022/10/27 00:56:32;;;;;;;2.20;1.23;;;23.20;60.30;;;;;;5059231;28;20032;-67
2022/10/27 00:58:58;;;;;;;1.77;1.08;;;23.20;60.40;;;;;;5078681;28;20040;-67
2022/10/27 01:01:24;;;;;;;1.73;1.20;;;23.20;60.40;;;;;;5077036;28;20020;-66
2022/10/27 01:03:50;;;;;;;2.00;1.10;;;23.20;60.40;;;;;;5078747;28;20377;-66
2022/10/27 01:06:16;;;;;;;2.72;1.13;;;23.20;60.40;;;;;;5060898;28;20035;-66
2022/10/27 01:08:43;;;;;;;1.80;1.00;;;23.20;60.40;;;;;;5055529;28;20039;-66
2022/10/27 01:11:08;;;;;;;2.40;1.17;;;23.20;60.40;;;;;;5075295;28;20513;-66
2022/10/27 01:13:34;;;;;;;1.75;1.00;;;23.20;60.40;;;;;;5075846;28;20020;-66
2022/10/27 01:16:14;;;;;;;1.40;0.90;;;23.20;60.40;;;;;;5074755;28;20488;-66
2022/10/27 01:19:06;;;;;;;2.08;1.10;;;23.20;60.40;;;;;;5079701;28;20036;-66
2022/10/27 01:21:54;;;;;;;1.80;1.10;;;23.20;60.50;;;;;;5069562;28;20032;-66
2022/10/27 01:25:12;;;;;;;2.20;1.10;;;23.20;60.50;;;;;;5077053;28;20028;-66
2022/10/27 01:27:47;;;;;;;1.45;0.98;;;23.20;60.40;;;;;;5048317;28;20510;-66
2022/10/27 01:30:20;;;;;;;1.67;1.08;;;23.20;60.50;;;;;;5079030;28;20047;-66
2022/10/27 01:33:03;;;;;;;2.20;1.10;;;23.20;60.50;;;;;;5078289;28;20062;-66
2022/10/27 01:35:45;;;;;;;2.17;1.30;;;23.10;60.40;;;;;;5082625;28;20029;-66
2022/10/27 01:38:23;;;;;;;1.52;1.00;;;23.10;60.40;;;;;;5082337;28;20032;-66
2022/10/27 01:41:04;;;;;;;1.50;0.90;;;23.10;60.50;;;;;;5080226;28;20039;-66
2022/10/27 01:43:30;;;;;;;2.50;0.90;;;23.10;60.50;;;;;;5079182;28;20032;-67
2022/10/27 01:45:59;;;;;;;2.22;1.15;;;23.10;60.40;;;;;;5081969;28;20809;-66
2022/10/27 01:48:24;;;;;;;1.77;1.10;;;23.10;60.40;;;;;;5081854;28;20044;-66
2022/10/27 01:50:50;;;;;;;1.95;1.08;;;23.10;60.40;;;;;;5066344;28;20064;-66
2022/10/27 01:53:15;;;;;;;1.63;1.10;;;23.10;60.40;;;;;;5081318;28;20486;-66
2022/10/27 01:55:44;;;;;;;1.50;0.93;;;23.10;60.50;;;;;;5082225;28;20032;-67
2022/10/27 01:58:30;;;;;;;1.27;0.90;;;23.10;60.50;;;;;;5083651;28;20032;-66
2022/10/27 02:01:11;;;;;;;1.80;1.08;;;23.10;60.50;;;;;;5083149;28;20036;-67
2022/10/27 02:04:00;;;;;;;2.33;1.00;;;23.10;60.50;;;;;;5078451;28;20086;-66
2022/10/27 02:06:50;;;;;;;1.77;0.90;;;23.10;60.60;;;;;;5079125;28;20036;-66
2022/10/27 02:09:24;;;;;;;2.03;1.00;;;23.00;60.50;;;;;;5080047;28;20033;-66
2022/10/27 02:11:52;;;;;;;1.92;0.90;;;23.10;60.50;;;;;;5083896;28;20067;-66
2022/10/27 02:14:19;;;;;;;1.38;0.95;;;23.00;60.50;;;;;;5082661;28;20471;-66
2022/10/27 02:16:49;;;;;;;1.58;1.00;;;23.00;60.50;;;;;;5084157;28;20379;-67
2022/10/27 02:19:19;;;;;;;1.23;0.80;;;23.00;60.50;;;;;;5077882;28;20024;-66
2022/10/27 02:21:48;;;;;;;1.70;1.10;;;23.00;60.50;;;;;;5064635;28;20024;-66
2022/10/27 02:24:15;;;;;;;2.50;1.13;;;23.00;60.50;;;;;;5067979;28;20024;-66
2022/10/27 02:26:55;;;;;;;1.38;1.00;;;23.00;60.50;;;;;;5081401;28;20031;-66
2022/10/27 02:29:35;;;;;;;1.23;1.00;;;23.00;60.50;;;;;;5078686;28;20105;-66
2022/10/27 02:32:04;;;;;;;1.55;1.00;;;23.00;60.50;;;;;;5080618;28;20540;-67
2022/10/27 02:34:31;;;;;;;1.65;0.90;;;23.00;60.50;;;;;;5068298;28;20032;-66
2022/10/27 02:36:57;;;;;;;2.03;1.10;;;23.00;60.50;;;;;;5084761;28;20040;-66
2022/10/27 02:39:23;;;;;;;1.35;0.90;;;22.90;60.50;;;;;;5079979;28;20024;-66
2022/10/27 02:41:49;;;;;;;1.55;1.10;;;22.90;60.50;;;;;;5074657;28;20032;-66
2022/10/27 02:44:14;;;;;;;2.05;1.00;;;22.90;60.50;;;;;;5078213;28;20024;-66
2022/10/27 02:46:40;;;;;;;1.25;0.98;;;22.90;60.50;;;;;;5063910;28;20437;-67
2022/10/27 02:49:06;;;;;;;2.38;1.05;;;22.90;60.60;;;;;;5076107;28;20035;-66
2022/10/27 02:51:32;;;;;;;2.53;1.17;;;22.90;60.60;;;;;;5073337;28;20021;-66
2022/10/27 02:53:57;;;;;;;1.40;1.00;;;22.90;60.60;;;;;;5078615;28;20029;-67
2022/10/27 02:56:23;;;;;;;1.35;0.90;;;22.90;60.60;;;;;;5076601;28;20360;-66
2022/10/27 02:58:49;;;;;;;1.30;0.90;;;22.90;60.60;;;;;;5079595;28;20360;-66
2022/10/27 03:01:15;;;;;;;1.80;1.00;;;22.90;60.60;;;;;;5083133;28;20032;-67
2022/10/27 03:03:41;;;;;;;1.77;1.10;;;22.90;60.60;;;;;;5077109;28;20020;-66
2022/10/27 03:06:06;;;;;;;1.52;0.90;;;22.90;60.60;;;;;;5060635;28;20361;-66
2022/10/27 03:08:32;;;;;;;1.63;1.00;;;22.90;60.60;;;;;;5075928;28;20119;-66
2022/10/27 03:10:57;;;;;;;1.75;1.17;;;22.90;60.60;;;;;;5062197;28;20135;-66
2022/10/27 03:13:23;;;;;;;1.70;1.30;;;22.90;60.70;;;;;;5062361;28;20039;-67
2022/10/27 03:15:49;;;;;;;1.38;0.90;;;22.90;60.60;;;;;;5082215;28;20504;-66
2022/10/27 03:18:15;;;;;;;1.92;1.00;;;22.90;60.60;;;;;;5079997;28;20028;-66
2022/10/27 03:20:40;;;;;;;1.63;0.95;;;22.90;60.60;;;;;;5079502;28;20024;-66
2022/10/27 03:23:06;;;;;;;1.65;0.90;;;22.80;60.60;;;;;;5080097;28;20427;-67
2022/10/27 03:25:31;;;;;;;1.33;0.85;;;22.80;60.60;;;;;;5077592;28;20051;-66
2022/10/27 03:27:57;;;;;;;1.38;1.00;;;22.80;60.60;;;;;;5077709;28;20029;-67
2022/10/27 03:30:23;;;;;;;1.10;0.80;;;22.90;60.70;;;;;;5062640;28;20480;-66
2022/10/27 03:32:50;;;;;;;1.75;0.90;;;22.80;60.60;;;;;;5063076;28;20035;-66
2022/10/27 03:35:17;;;;;;;2.20;0.93;;;22.80;60.60;;;;;;5080340;28;20352;-66
2022/10/27 03:37:43;;;;;;;1.65;0.93;;;22.80;60.60;;;;;;5082137;28;20028;-66
2022/10/27 03:40:10;;;;;;;1.00;0.80;;;22.80;60.60;;;;;;5060370;28;20032;-66
2022/10/27 03:42:42;;;;;;;1.42;1.00;;;22.80;60.60;;;;;;5080293;28;20070;-66
2022/10/27 03:45:09;;;;;;;1.90;0.90;;;22.80;60.60;;;;;;5076204;28;20025;-66
2022/10/27 03:47:35;;;;;;;1.55;1.02;;;22.80;60.70;;;;;;5077315;28;20085;-67
2022/10/27 03:50:00;;;;;;;1.20;0.80;;;22.80;60.60;;;;;;5074469;28;20035;-66
2022/10/27 03:52:26;;;;;;;1.50;0.90;;;22.80;60.70;;;;;;5058735;28;20024;-66
2022/10/27 03:54:51;;;;;;;1.38;0.90;;;22.80;60.70;;;;;;5080055;28;20459;-66
2022/10/27 03:57:17;;;;;;;1.27;0.80;;;22.80;60.70;;;;;;5082502;28;20028;-66
2022/10/27 03:59:43;;;;;;;1.50;0.90;;;22.80;60.70;;;;;;5081571;28;20045;-66
2022/10/27 04:02:08;;;;;;;1.48;0.85;;;22.70;60.70;;;;;;5078013;28;20029;-66
2022/10/27 04:04:34;;;;;;;1.38;0.90;;;22.70;60.70;;;;;;5079990;28;20494;-66
2022/10/27 04:06:59;;;;;;;1.70;1.08;;;22.70;60.70;;;;;;5079517;28;20020;-66
2022/10/27 04:09:25;;;;;;;1.10;0.90;;;22.70;60.70;;;;;;5062965;28;20028;-66
2022/10/27 04:11:51;;;;;;;1.75;1.10;;;22.80;60.80;;;;;;5083574;28;20104;-66
2022/10/27 04:14:16;;;;;;;1.45;0.88;;;22.70;60.80;;;;;;5082587;28;20079;-66
2022/10/27 04:16:42;;;;;;;1.33;0.80;;;22.70;60.80;;;;;;5083629;28;20024;-66
2022/10/27 04:19:09;;;;;;;1.85;1.00;;;22.70;60.80;;;;;;5061151;28;20024;-66
2022/10/27 04:21:34;;;;;;;1.33;0.95;;;22.70;60.80;;;;;;5080463;28;20111;-66
2022/10/27 04:24:00;;;;;;;1.65;1.10;;;22.70;60.80;;;;;;5077628;28;20462;-66
2022/10/27 04:26:25;;;;;;;2.13;0.90;;;22.70;60.80;;;;;;5076096;28;20031;-66
2022/10/27 04:28:51;;;;;;;1.08;0.93;;;22.70;60.80;;;;;;5058813;28;20082;-66
2022/10/27 04:31:16;;;;;;;1.65;0.98;;;22.70;60.80;;;;;;5078792;28;20040;-66
2022/10/27 04:33:42;;;;;;;0.98;0.80;;;22.70;60.90;;;;;;5072963;28;20131;-66
2022/10/27 04:36:08;;;;;;;1.50;1.00;;;22.70;60.90;;;;;;5076353;28;20535;-66
2022/10/27 04:38:33;;;;;;;1.10;0.80;;;22.70;60.90;;;;;;5077715;28;20099;-66
2022/10/27 04:40:59;;;;;;;1.33;0.90;;;22.70;60.90;;;;;;5073940;28;20055;-66
2022/10/27 04:43:25;;;;;;;1.25;0.90;;;22.70;61.00;;;;;;5061364;28;20020;-66
2022/10/27 04:45:51;;;;;;;1.42;0.80;;;22.70;61.00;;;;;;5077449;28;20028;-66
2022/10/27 04:48:16;;;;;;;1.23;0.80;;;22.70;61.00;;;;;;5078098;28;20027;-67
2022/10/27 04:50:42;;;;;;;1.85;0.90;;;22.70;61.00;;;;;;5059759;28;20434;-66
2022/10/27 04:53:07;;;;;;;0.90;0.80;;;22.70;61.00;;;;;;5076266;28;20067;-66
2022/10/27 04:55:33;;;;;;;1.63;0.90;;;22.70;61.00;;;;;;5082248;28;20472;-66
2022/10/27 04:57:59;;;;;;;1.35;0.90;;;22.70;61.00;;;;;;5069966;28;20032;-66
2022/10/27 05:00:26;;;;;;;2.30;1.00;;;22.60;60.90;;;;;;5081998;28;20039;-67
2022/10/27 05:02:56;;;;;;;1.50;0.90;;;22.70;61.00;;;;;;5082758;28;20070;-66
2022/10/27 05:05:23;;;;;;;1.17;0.90;;;22.60;61.00;;;;;;5065231;28;20105;-65
2022/10/27 05:07:57;;;;;;;1.35;0.95;;;22.60;61.20;;;;;;5082479;28;20031;-65
2022/10/27 05:10:23;;;;;;;3.13;0.88;;;22.70;61.80;;;;;;5076968;28;20032;-64
2022/10/27 05:12:49;;;;;;;2.35;1.02;;;22.80;62.00;;;;;;5082958;28;20051;-66
2022/10/27 05:15:15;;;;;;;1.70;0.98;;;22.90;61.50;;;;;;5081965;28;20411;-65
2022/10/27 05:17:40;;;;;;;1.67;1.10;;;23.00;61.30;;;;;;5062953;28;20048;-66
2022/10/27 05:20:07;;;;;;;2.85;1.20;;;23.10;61.10;;;;;;5084978;28;20056;-66
2022/10/27 05:22:33;;;;;;;1.52;1.05;;;23.30;60.80;;;;;;5086113;28;20051;-66
2022/10/27 05:24:58;;;;;;;1.80;1.00;;;23.40;60.30;;;;;;5065137;28;20027;-66
2022/10/27 05:27:24;;;;;;;2.65;1.00;;;23.50;60.10;;;;;;5082090;28;20025;-65
2022/10/27 05:29:50;;;;;;;3.42;1.00;;;23.70;59.90;;;;;;5080593;28;20024;-64
2022/10/27 05:32:15;;;;;;;2.22;0.90;;;23.80;59.60;;;;;;5082402;28;20122;-65
2022/10/27 05:34:42;;;;;;;1.38;0.80;;;23.90;59.40;;;;;;5085803;28;20115;-65
2022/10/27 05:37:08;;;;;;;2.83;1.10;;;24.00;58.90;;;;;;5082542;28;20024;-67
2022/10/27 05:39:33;;;;;;;2.10;1.13;;;24.00;58.70;;;;;;5084478;28;20764;-66
2022/10/27 05:41:59;;;;;;;2.28;1.20;;;24.00;58.60;;;;;;5082609;28;20085;-65
2022/10/27 05:44:25;;;;;;;2.92;1.00;;;24.00;58.50;;;;;;5084316;28;20075;-65
2022/10/27 05:46:51;;;;;;;1.30;1.10;;;24.00;58.50;;;;;;5080973;28;20422;-64
2022/10/27 05:49:16;;;;;;;2.60;1.00;;;24.00;58.40;;;;;;5080824;28;20034;-65
2022/10/27 05:51:42;;;;;;;2.05;1.00;;;24.00;58.40;;;;;;5078505;28;20036;-65
2022/10/27 05:54:08;;;;;;;2.83;1.10;;;24.00;58.30;;;;;;5083398;28;20024;-64
2022/10/27 05:56:33;;;;;;;1.70;0.95;;;24.00;58.30;;;;;;5084208;28;20447;-65
2022/10/27 05:58:59;;;;;;;1.75;1.15;;;24.10;58.30;;;;;;5081202;28;20156;-66
2022/10/27 06:01:25;;;;;;;2.00;1.00;;;24.00;58.10;;;;;;5081441;28;20028;-65
2022/10/27 06:03:50;;;;;;;3.88;1.52;;;24.10;58.10;;;;;;5084306;28;20020;-64
2022/10/27 06:06:16;;;;;;;1.52;0.98;;;24.10;58.00;;;;;;5080090;28;20059;-65
2022/10/27 06:08:41;;;;;;;2.30;1.08;;;24.10;58.00;;;;;;5075225;28;20036;-66
2022/10/27 06:11:07;;;;;;;2.58;1.10;;;24.10;58.00;;;;;;5077587;28;20437;-64
2022/10/27 06:13:33;;;;;;;1.92;1.10;;;24.10;58.00;;;;;;5079336;28;20467;-64
2022/10/27 06:15:58;;;;;;;1.35;0.98;;;24.10;57.90;;;;;;5061958;28;20470;-65
2022/10/27 06:18:24;;;;;;;1.77;1.00;;;24.10;57.80;;;;;;5064391;28;20092;-65
2022/10/27 06:20:50;;;;;;;2.78;1.00;;;24.10;57.80;;;;;;5079481;28;20040;-64
2022/10/27 06:23:15;;;;;;;2.33;1.00;;;24.20;57.80;;;;;;5077353;28;20034;-64
2022/10/27 06:25:41;;;;;;;1.58;1.10;;;24.20;57.70;;;;;;5077712;28;20163;-64
2022/10/27 06:28:07;;;;;;;2.00;0.93;;;24.20;57.70;;;;;;5067255;28;20020;-64
2022/10/27 06:30:32;;;;;;;2.88;0.93;;;24.30;57.70;;;;;;5083893;28;20511;-66
2022/10/27 06:32:58;;;;;;;1.95;1.00;;;24.20;57.60;;;;;;5086243;28;20555;-64
2022/10/27 06:35:23;;;;;;;1.70;1.02;;;24.20;57.60;;;;;;5062750;28;20055;-65
2022/10/27 06:37:49;;;;;;;1.63;1.00;;;24.20;57.50;;;;;;5086068;28;20087;-67
2022/10/27 06:40:16;;;;;;;2.78;1.10;;;24.30;57.50;;;;;;5082453;28;20036;-65
2022/10/27 06:42:43;;;;;;;2.22;1.10;;;24.30;57.50;;;;;;5081163;28;20486;-65
2022/10/27 06:45:10;;;;;;;1.60;0.98;;;24.30;57.50;;;;;;5080221;28;20033;-65
2022/10/27 06:47:35;;;;;;;2.00;0.88;;;24.30;57.50;;;;;;5078737;28;20028;-65
2022/10/27 06:50:01;;;;;;;1.40;1.00;;;24.30;57.50;;;;;;5081684;28;20034;-65
2022/10/27 06:52:27;;;;;;;1.75;0.90;;;24.30;57.50;;;;;;5082848;28;20111;-64
2022/10/27 06:54:53;;;;;;;1.05;0.70;;;24.30;58.10;;;;;;5083871;28;20024;-66
2022/10/27 06:57:19;;;;;;;1.48;0.88;;;24.30;58.00;;;;;;5075928;28;20055;-66
2022/10/27 06:59:44;;;;;;;1.15;0.80;;;24.40;58.10;;;;;;5078213;28;20028;-66
2022/10/27 07:02:13;;;;;;;1.42;0.90;;;24.30;58.20;;;;;;5078087;28;20029;-63
2022/10/27 07:04:39;;;;;;;1.65;0.70;;;24.40;58.30;;;;;;5080489;28;20023;-66
2022/10/27 07:07:05;;;;;;;1.98;1.05;;;24.40;58.20;;;;;;5074312;28;20108;-66
2022/10/27 07:09:31;;;;;;;1.33;1.00;;;24.40;57.70;;;;;;5074123;28;20112;-66
2022/10/27 07:11:56;;;;;;;0.93;0.80;;;24.40;57.40;;;;;;5075913;28;20024;-66
2022/10/27 07:14:22;;;;;;;3.00;1.02;;;24.40;57.30;;;;;;5083139;28;20074;-66
2022/10/27 07:16:48;;;;;;;1.42;0.90;;;24.40;57.20;;;;;;5082861;28;20024;-66
2022/10/27 07:19:13;;;;;;;2.30;1.13;;;24.40;57.20;;;;;;5082046;28;20067;-66
2022/10/27 07:21:39;;;;;;;1.88;0.90;;;24.40;57.10;;;;;;5080010;28;20399;-66
2022/10/27 07:24:05;;;;;;;1.60;0.93;;;24.40;57.10;;;;;;5077803;28;20462;-65
2022/10/27 07:26:31;;;;;;;2.15;1.10;;;24.40;57.10;;;;;;5078289;28;20031;-66
2022/10/27 07:28:56;;;;;;;1.55;0.90;;;24.40;57.10;;;;;;5082613;28;20067;-65
2022/10/27 07:31:22;;;;;;;1.40;1.00;;;24.40;57.10;;;;;;5085665;28;20085;-65
2022/10/27 07:33:47;;;;;;;1.30;0.90;;;24.40;57.10;;;;;;5083478;28;20594;-66
2022/10/27 07:36:13;;;;;;;2.20;1.20;;;24.40;57.50;;;;;;5070179;28;20044;-63
2022/10/27 07:38:38;;;;;;;1.85;1.00;;;24.40;57.20;;;;;;5077685;28;20678;-65
2022/10/27 07:41:05;;;;;;;2.67;1.00;;;24.40;57.20;;;;;;5079958;28;20021;-66
2022/10/27 07:43:30;;;;;;;1.38;1.00;;;24.40;57.20;;;;;;5076417;28;20475;-65
2022/10/27 07:45:57;;;;;;;1.80;0.88;;;24.40;57.30;;;;;;5059444;28;20107;-63
2022/10/27 07:48:22;;;;;;;2.30;1.10;;;24.40;57.30;;;;;;5081129;28;20059;-65
2022/10/27 07:50:48;;;;;;;1.65;0.93;;;24.40;57.20;;;;;;5077357;28;20052;-67
2022/10/27 07:53:17;;;;;;;1.65;1.17;;;24.40;57.20;;;;;;5078470;28;20035;-66
2022/10/27 07:55:43;;;;;;;2.30;1.20;;;24.40;57.20;;;;;;5078914;28;20502;-65
2022/10/27 07:58:11;;;;;;;1.63;1.00;;;24.40;57.30;;;;;;5074062;28;20112;-67
2022/10/27 08:00:42;;;;;;;2.35;1.00;;;24.40;57.40;;;;;;5078756;28;20467;-66
2022/10/27 08:03:13;;;;;;;1.75;1.00;;;24.40;57.30;;;;;;5079779;28;20028;-64
2022/10/27 08:05:38;;;;;;;2.05;1.10;;;24.40;57.20;;;;;;5079959;28;20044;-64
2022/10/27 08:08:05;;;;;;;1.52;0.90;;;24.50;57.20;;;;;;5078197;28;20032;-64
2022/10/27 08:10:34;;;;;;;1.30;0.90;;;24.40;57.20;;;;;;5077633;28;20029;-65
2022/10/27 08:12:59;;;;;;;1.63;1.00;;;24.50;57.30;;;;;;5082174;28;20491;-63
2022/10/27 08:15:26;;;;;;;1.75;1.10;;;24.50;57.50;;;;;;5067291;28;20020;-67
2022/10/27 08:17:53;;;;;;;2.38;0.90;;;24.50;57.50;;;;;;5064836;28;20529;-62
2022/10/27 08:20:19;;;;;;;2.72;1.13;;;24.50;57.40;;;;;;5079631;28;20027;-65
2022/10/27 08:22:45;;;;;;;1.83;1.02;;;24.50;57.40;;;;;;5080234;28;20364;-65
2022/10/27 08:25:10;;;;;;;2.03;1.00;;;24.50;57.30;;;;;;5079944;28;20032;-64
2022/10/27 08:27:36;;;;;;;1.40;0.95;;;24.40;57.40;;;;;;5064303;28;20115;-64
2022/10/27 08:30:02;;;;;;;1.98;1.15;;;24.50;57.60;;;;;;5074911;28;20032;-64
2022/10/27 08:32:28;;;;;;;2.72;1.15;;;24.40;57.50;;;;;;5079420;28;20035;-65
2022/10/27 08:34:53;;;;;;;1.45;1.00;;;24.50;57.60;;;;;;5084942;28;20025;-66
2022/10/27 08:37:19;;;;;;;2.97;1.10;;;24.50;57.60;;;;;;5081672;28;20032;-66
2022/10/27 08:39:45;;;;;;;2.30;1.10;;;24.50;57.50;;;;;;5084731;28;20029;-65
2022/10/27 08:43:01;;;;;;;1.65;1.00;;;24.50;57.40;;;;;;5077934;28;20091;-66
2022/10/27 08:45:45;;;;;;;1.23;0.90;;;24.50;57.60;;;;;;5036711;28;20055;-64
2022/10/27 08:48:12;;;;;;;1.83;1.17;;;24.50;57.50;;;;;;5079315;28;20020;-65
2022/10/27 08:50:42;;;;;;;2.08;1.10;;;24.50;57.60;;;;;;5070561;28;20039;-64
2022/10/27 08:53:13;;;;;;;2.70;1.00;;;24.50;57.40;;;;;;5079541;28;20048;-64
2022/10/27 08:56:08;;;;;;;2.28;1.10;;;24.50;57.40;;;;;;5083843;28;20024;-65
2022/10/27 08:58:42;;;;;;;1.67;0.93;;;24.50;57.40;;;;;;5082101;28;20051;-65
2022/10/27 09:01:08;;;;;;;1.70;1.10;;;24.50;57.40;;;;;;5064352;28;20081;-66
2022/10/27 09:04:04;;;;;;;2.35;1.10;;;24.50;57.40;;;;;;5081702;28;20035;-65
2022/10/27 09:06:32;;;;;;;1.85;1.10;;;24.50;57.40;;;;;;5080867;28;20032;-64
2022/10/27 09:09:29;;;;;;;1.23;0.95;;;24.50;57.40;;;;;;5078670;28;20032;-65
2022/10/27 09:12:14;;;;;;;1.90;1.00;;;24.50;57.40;;;;;;5083057;28;20494;-65
2022/10/27 09:14:45;;;;;;;1.65;1.00;;;24.60;57.50;;;;;;5084713;28;20036;-63
2022/10/27 09:17:24;;;;;;;1.30;0.95;;;24.50;57.40;;;;;;5082018;28;20101;-63
2022/10/27 09:20:00;;;;;;;2.90;1.10;;;24.50;57.40;;;;;;5083312;28;20101;-64
2022/10/27 09:22:28;;;;;;;1.40;0.95;;;24.50;57.40;;;;;;5086754;28;20045;-65
2022/10/27 09:25:03;;;;;;;1.90;1.10;;;24.50;57.40;;;;;;5080199;28;20025;-66
2022/10/27 09:27:29;;;;;;;2.53;1.38;;;24.60;57.40;;;;;;5063632;28;20491;-64
2022/10/27 09:30:00;;;;;;;1.80;0.98;;;24.60;57.40;;;;;;5072140;28;20028;-66
2022/10/27 09:32:26;;;;;;;2.08;1.20;;;24.50;57.40;;;;;;5083037;28;20032;-66
2022/10/27 09:35:03;;;;;;;3.08;1.17;;;24.60;57.50;;;;;;5083100;28;20090;-63
2022/10/27 09:37:39;;;;;;;2.25;1.10;;;24.60;57.40;;;;;;5083941;28;20021;-65
2022/10/27 09:40:14;;;;;;;2.65;1.15;;;24.60;57.60;;;;;;5086374;28;20028;-64
2022/10/27 09:42:40;;;;;;;2.15;1.27;;;24.60;57.50;;;;;;5078251;28;20349;-65
2022/10/27 09:45:27;;;;;;;3.33;1.10;;;24.60;57.50;;;;;;5065161;28;20029;-67
2022/10/27 09:47:56;;;;;;;1.95;1.10;;;24.60;57.50;;;;;;5083083;28;20335;-65
2022/10/27 09:50:28;;;;;;;1.73;0.90;;;24.60;57.50;;;;;;5083584;28;20031;-67
2022/10/27 09:52:53;;;;;;;3.40;1.23;;;24.60;57.50;;;;;;5083123;28;20426;-65
2022/10/27 09:55:19;;;;;;;3.42;1.10;;;24.60;57.50;;;;;;5084292;28;20024;-64
2022/10/27 09:57:47;;;;;;;2.15;1.10;;;24.60;58.00;;;;;;5071167;28;20437;-64
2022/10/27 10:00:15;;;;;;;1.83;1.10;;;24.70;57.60;;;;;;5080634;28;20032;-66
2022/10/27 10:02:54;;;;;;;2.42;1.27;;;24.60;57.50;;;;;;5083514;28;20031;-64
2022/10/27 10:05:24;;;;;;;3.25;1.15;;;24.60;57.60;;;;;;5083229;28;20476;-65
2022/10/27 10:07:50;;;;;;;1.40;0.93;;;24.70;57.60;;;;;;5086235;28;20035;-63
2022/10/27 10:10:30;;;;;;;2.28;1.00;;;24.60;57.50;;;;;;5085010;28;20380;-66
2022/10/27 10:13:05;;;;;;;2.92;1.10;;;24.60;57.50;;;;;;5081639;28;20035;-65
2022/10/27 10:16:07;;;;;;;2.10;0.93;;;24.70;57.60;;;;;;5080486;28;20115;-66
2022/10/27 10:18:37;;;;;;;1.25;0.90;;;24.70;57.50;;;;;;5061853;28;20048;-65
2022/10/27 10:21:07;;;;;;;1.45;0.90;;;24.60;57.50;;;;;;5079658;28;20059;-63
2022/10/27 10:23:48;;;;;;;1.60;1.00;;;24.70;57.60;;;;;;5065234;28;20748;-67
2022/10/27 10:26:22;;;;;;;2.35;1.00;;;24.70;57.50;;;;;;5083390;28;20379;-66
2022/10/27 10:28:54;;;;;;;1.95;1.10;;;24.70;57.60;;;;;;5086166;28;20097;-67
2022/10/27 10:31:28;;;;;;;3.17;1.60;;;24.60;57.50;;;;;;5079064;28;20036;-65
2022/10/27 10:34:05;;;;;;;2.83;1.00;;;24.70;57.50;;;;;;5080870;28;20056;-64
2022/10/27 10:36:38;;;;;;;1.88;1.00;;;24.70;57.50;;;;;;5083128;28;20503;-66
2022/10/27 10:39:24;;;;;;;2.08;1.20;;;24.70;57.50;;;;;;5080526;28;20050;-66
2022/10/27 10:42:17;;;;;;;1.85;1.00;;;24.70;57.50;;;;;;5079480;28;20499;-65
2022/10/27 10:44:43;;;;;;;1.67;1.00;;;24.70;57.50;;;;;;5071474;28;20467;-64
2022/10/27 10:47:28;;;;;;;2.47;1.10;;;24.70;57.60;;;;;;5066204;28;20052;-64
2022/10/27 10:49:58;;;;;;;2.22;1.15;;;24.70;57.60;;;;;;5072045;28;20070;-64
2022/10/27 10:52:33;;;;;;;2.92;1.00;;;24.80;58.10;;;;;;5085081;28;20020;-64
2022/10/27 10:55:06;;;;;;;4.13;1.83;;;24.70;57.60;;;;;;5077948;28;20115;-64
2022/10/27 10:57:40;;;;;;;2.13;0.95;;;24.70;57.60;;;;;;5080271;28;20035;-65
2022/10/27 11:00:15;;;;;;;2.33;1.10;;;24.80;57.60;;;;;;5060405;28;20028;-65
2022/10/27 11:02:41;;;;;;;2.40;1.08;;;24.80;57.60;;;;;;5057461;28;20021;-65
2022/10/27 11:05:13;;;;;;;1.63;0.95;;;24.80;57.60;;;;;;5082293;28;20482;-66
2022/10/27 11:07:40;;;;;;;2.03;1.13;;;24.80;57.50;;;;;;5080163;28;20105;-64
2022/10/27 11:10:20;;;;;;;2.22;1.05;;;24.80;57.50;;;;;;5079641;28;20501;-65
2022/10/27 11:12:45;;;;;;;1.92;1.20;;;24.80;57.50;;;;;;5080759;28;20020;-65
2022/10/27 11:15:32;;;;;;;2.13;0.95;;;24.80;57.50;;;;;;5080379;28;20039;-65
2022/10/27 11:18:11;;;;;;;2.10;1.20;;;24.80;57.40;;;;;;5076256;28;20044;-66
2022/10/27 11:20:37;;;;;;;1.70;1.00;;;24.80;57.40;;;;;;5075831;28;20032;-66
2022/10/27 11:23:24;;;;;;;2.35;1.10;;;24.80;57.40;;;;;;5077189;28;20043;-66
2022/10/27 11:25:51;;;;;;;2.05;1.20;;;24.80;57.40;;;;;;5071995;28;20067;-65
2022/10/27 11:28:40;;;;;;;2.20;1.17;;;24.80;57.30;;;;;;5060661;28;20033;-66
2022/10/27 11:31:17;;;;;;;2.45;1.10;;;24.80;57.30;;;;;;5079716;28;20031;-65
2022/10/27 11:34:17;;;;;;;2.10;1.10;;;24.80;57.30;;;;;;5079736;28;20681;-65
2022/10/27 11:36:48;;;;;;;;;;;24.90;57.30;;;;;;5078979;28;20082;-64
2022/10/27 11:39:22;;;;;;;2.53;1.08;;;24.90;57.30;;;;;;5078296;28;20418;-67
2022/10/27 11:42:16;;;;;;;3.08;1.30;;;24.90;57.30;;;;;;5078005;28;20040;-65
2022/10/27 11:45:17;;;;;;;1.98;1.10;;;24.90;57.30;;;;;;5076945;28;20127;-64
2022/10/27 11:47:45;;;;;;;2.92;1.10;;;24.90;57.30;;;;;;5081150;28;20391;-65
2022/10/27 11:50:20;;;;;;;2.28;1.17;;;24.90;57.30;;;;;;5069405;28;20021;-64
2022/10/27 11:52:48;;;;;;;2.03;1.20;;;24.90;57.30;;;;;;5085154;28;20093;-64
2022/10/27 11:55:17;;;;;;;2.60;1.30;;;24.90;57.70;;;;;;5074107;28;20062;-65
2022/10/27 11:58:09;;;;;;;1.95;1.20;;;24.90;57.80;;;;;;5063653;28;20066;-66
2022/10/27 12:00:55;;;;;;;1.83;1.10;;;24.90;57.30;;;;;;5058201;28;20541;-64
2022/10/27 12:03:58;;;;;;;2.72;1.20;;;24.90;57.30;;;;;;5069871;28;20487;-65
2022/10/27 12:06:35;;;;;;;2.38;1.20;;;24.90;57.30;;;;;;5064383;28;20157;-66
2022/10/27 12:09:16;;;;;;;2.85;1.20;;;24.90;57.30;;;;;;5079522;28;20028;-66
2022/10/27 12:11:50;;;;;;;2.25;1.10;;;24.90;57.30;;;;;;5074500;28;20048;-66
2022/10/27 12:14:19;;;;;;;2.70;1.30;;;24.90;57.40;;;;;;5077086;28;20040;-65
2022/10/27 12:16:56;;;;;;;2.53;1.50;;;24.90;57.40;;;;;;5078006;28;20069;-65
2022/10/27 12:19:29;;;;;;;2.30;1.08;;;24.90;57.30;;;;;;5069611;28;20620;-66
2022/10/27 12:22:19;;;;;;;3.63;1.10;;;24.90;57.30;;;;;;5082122;28;20461;-65
2022/10/27 12:24:56;;;;;;;2.30;1.02;;;24.90;57.30;;;;;;5076367;28;20506;-65
2022/10/27 12:27:47;;;;;;;2.17;1.10;;;24.90;57.30;;;;;;5077758;28;20031;-67
2022/10/27 12:30:18;;;;;;;1.98;1.15;;;25.00;57.40;;;;;;5072652;28;20124;-66
2022/10/27 12:32:54;;;;;;;1.60;1.02;;;24.90;57.30;;;;;;5064256;28;20028;-70
2022/10/27 12:36:00;;;;;;;2.03;1.10;;;25.00;57.30;;;;;;5081157;28;20024;-67
2022/10/27 12:38:43;;;;;;;2.72;1.40;;;25.00;57.30;;;;;;5068370;28;20037;-68
2022/10/27 12:41:15;;;;;;;2.78;1.10;;;25.00;57.30;;;;;;5077588;28;20082;-71
2022/10/27 12:43:53;;;;;;;3.35;1.35;;;25.00;57.20;;;;;;5078459;28;20020;-70
2022/10/27 12:46:46;;;;;;;2.78;1.00;;;25.00;57.20;;;;;;5073821;28;20451;-69
2022/10/27 12:49:33;;;;;;;2.47;1.27;;;25.00;57.40;;;;;;5076608;28;20392;-69
2022/10/27 12:52:17;;;;;;;1.85;1.10;;;25.00;57.50;;;;;;5074183;28;20035;-69
2022/10/27 12:55:01;;;;;;;2.53;1.08;;;25.00;57.60;;;;;;5079382;28;20028;-69
2022/10/27 12:57:56;;;;;;;2.13;1.10;;;25.00;57.70;;;;;;5077550;28;20059;-70
2022/10/27 13:00:24;;;;;;;3.20;1.10;;;25.00;57.60;;;;;;5080958;28;20111;-73
2022/10/27 13:03:01;;;;;;;1.85;1.20;;;25.00;57.60;;;;;;5077639;28;20024;-70
2022/10/27 13:05:53;;;;;;;2.05;0.90;;;25.00;57.70;;;;;;5073974;28;20024;-68
2022/10/27 13:09:06;;;;;;;2.35;1.10;;;25.10;57.80;;;;;;5073781;28;20375;-74